createdAt,value
2022-09-29T00:02:17.774Z,99322.47
2022-09-29T00:04:45.263Z,99325.28
2022-09-29T00:07:12.811Z,99332.66
2022-09-29T00:09:41.667Z,99334.16
2022-09-29T00:12:09.179Z,99336.03
2022-09-29T00:14:36.835Z,99332.34
2022-09-29T00:17:05.138Z,99336.38
2022-09-29T00:19:33.519Z,99340.78
2022-09-29T00:22:01.790Z,99332.00
2022-09-29T00:24:29.507Z,99331.53
2022-09-29T00:26:58.661Z,99333.94
2022-09-29T00:29:26.239Z,99332.53
2022-09-29T00:31:53.978Z,99324.78
2022-09-29T00:34:21.632Z,99322.44
2022-09-29T00:36:49.126Z,99324.31
2022-09-29T00:39:16.695Z,99323.28
2022-09-29T00:41:44.237Z,99326.81
2022-09-29T00:44:45.062Z,99326.00
2022-09-29T00:47:16.252Z,99328.50
2022-09-29T00:49:45.808Z,99325.06
2022-09-29T00:52:15.681Z,99328.78
2022-09-29T00:54:47.200Z,99329.91
2022-09-29T00:57:16.963Z,99328.22
2022-09-29T00:59:48.448Z,99323.31
2022-09-29T01:02:18.388Z,99323.47
2022-09-29T01:04:46.776Z,99328.72
2022-09-29T01:07:14.662Z,99330.06
2022-09-29T01:09:43.883Z,99335.13
2022-09-29T01:12:11.434Z,99328.38
2022-09-29T01:14:39.337Z,99326.00
2022-09-29T01:17:07.043Z,99327.22
2022-09-29T01:19:42.191Z,99321.31
2022-09-29T01:22:15.252Z,99321.41
2022-09-29T01:24:58.071Z,99316.72
2022-09-29T01:27:34.874Z,99322.50
2022-09-29T01:30:13.955Z,99316.88
2022-09-29T01:33:03.316Z,99323.56
2022-09-29T01:35:34.148Z,99326.34
2022-09-29T01:38:17.535Z,99322.81
2022-09-29T01:40:50.544Z,99320.53
2022-09-29T01:43:19.962Z,99327.06
2022-09-29T01:45:52.018Z,99323.59
2022-09-29T01:48:25.378Z,99332.78
2022-09-29T01:50:55.616Z,99326.25
2022-09-29T01:53:26.350Z,99340.91
2022-09-29T01:55:56.629Z,99330.63
2022-09-29T01:58:27.236Z,99337.38
2022-09-29T02:00:58.432Z,99325.84
2022-09-29T02:03:30.728Z,99335.41
2022-09-29T02:06:00.197Z,99333.56
2022-09-29T02:08:32.626Z,99334.22
2022-09-29T02:11:03.358Z,99334.03
2022-09-29T02:13:32.846Z,99329.84
2022-09-29T02:16:00.986Z,99334.22
2022-09-29T02:18:33.611Z,99337.81
2022-09-29T02:21:01.399Z,99332.16
2022-09-29T02:23:28.908Z,99333.09
2022-09-29T02:25:58.568Z,99334.38
2022-09-29T02:28:26.233Z,99341.47
2022-09-29T02:30:53.927Z,99338.84
2022-09-29T02:33:22.819Z,99340.63
2022-09-29T02:36:02.283Z,99339.69
2022-09-29T02:38:37.739Z,99342.72
2022-09-29T02:41:08.854Z,99341.13
2022-09-29T02:43:49.723Z,99343.84
2022-09-29T02:46:31.391Z,99345.50
2022-09-29T02:49:20.569Z,99352.91
2022-09-29T02:51:51.271Z,99344.38
2022-09-29T02:54:28.822Z,99345.69
2022-09-29T02:57:01.659Z,99353.59
2022-09-29T02:59:34.435Z,99349.66
2022-09-29T03:02:02.308Z,99348.00
2022-09-29T03:04:30.283Z,99352.44
2022-09-29T03:06:59.690Z,99355.91
2022-09-29T03:09:28.257Z,99349.16
2022-09-29T03:11:55.745Z,99352.53
2022-09-29T03:14:23.216Z,99352.63
2022-09-29T03:16:50.983Z,99353.84
2022-09-29T03:19:18.479Z,99362.50
2022-09-29T03:21:45.988Z,99352.28
2022-09-29T03:24:15.245Z,99344.63
2022-09-29T03:26:43.187Z,99350.38
2022-09-29T03:29:10.679Z,99359.69
2022-09-29T03:31:40.561Z,99358.75
2022-09-29T03:34:08.491Z,99356.47
2022-09-29T03:36:36.066Z,99360.19
2022-09-29T03:39:03.632Z,99366.25
2022-09-29T03:41:32.712Z,99365.66
2022-09-29T03:44:00.247Z,99362.25
2022-09-29T03:46:27.769Z,99361.16
2022-09-29T03:48:55.792Z,99357.94
2022-09-29T03:51:23.404Z,99359.78
2022-09-29T03:53:50.916Z,99358.59
2022-09-29T03:56:18.439Z,99356.59
2022-09-29T03:58:50.029Z,99356.28
2022-09-29T04:01:17.742Z,99358.66
2022-09-29T04:03:45.378Z,99362.13
2022-09-29T04:06:12.920Z,99359.44
2022-09-29T04:08:40.432Z,99362.22
2022-09-29T04:11:08.144Z,99365.34
2022-09-29T04:13:35.664Z,99364.50
2022-09-29T04:16:06.461Z,99354.56
2022-09-29T04:18:34.354Z,99362.38
2022-09-29T04:21:06.888Z,99360.09
2022-09-29T04:23:34.831Z,99363.97
2022-09-29T04:26:02.600Z,99360.94
2022-09-29T04:28:32.363Z,99363.69
2022-09-29T04:30:59.919Z,99361.59
2022-09-29T04:33:29.877Z,99363.09
2022-09-29T04:35:57.426Z,99359.06
2022-09-29T04:38:25.098Z,99370.88
2022-09-29T04:40:52.751Z,99369.56
2022-09-29T04:43:20.510Z,99374.47
2022-09-29T04:45:48.116Z,99383.22
2022-09-29T04:48:15.742Z,99373.63
2022-09-29T04:50:44.686Z,99381.69
2022-09-29T04:53:12.798Z,99387.00
2022-09-29T04:55:41.471Z,99380.03
2022-09-29T04:58:08.972Z,99386.28
2022-09-29T05:00:36.513Z,99384.28
2022-09-29T05:03:04.259Z,99386.91
2022-09-29T05:05:31.791Z,99393.25
2022-09-29T05:08:04.042Z,99396.69
2022-09-29T05:10:31.923Z,99395.03
2022-09-29T05:12:59.487Z,99403.06
2022-09-29T05:15:27.237Z,99405.34
2022-09-29T05:17:54.752Z,99409.63
2022-09-29T05:20:22.603Z,99418.84
2022-09-29T05:22:50.111Z,99415.75
2022-09-29T05:25:19.404Z,99414.84
2022-09-29T05:27:46.956Z,99419.72
2022-09-29T05:30:14.513Z,99415.97
2022-09-29T05:32:43.716Z,99415.63
2022-09-29T05:35:11.348Z,99417.56
2022-09-29T05:37:38.903Z,99418.31
2022-09-29T05:40:08.407Z,99428.00
2022-09-29T05:42:37.322Z,99431.78
2022-09-29T05:45:06.295Z,99442.38
2022-09-29T05:47:33.823Z,99442.66
2022-09-29T05:50:03.187Z,99439.66
2022-09-29T05:52:30.715Z,99448.50
2022-09-29T05:54:58.254Z,99451.28
2022-09-29T05:57:25.741Z,99451.38
2022-09-29T05:59:54.720Z,99454.75
2022-09-29T06:02:22.345Z,99450.50
2022-09-29T06:04:50.247Z,99453.88
2022-09-29T06:07:17.763Z,99461.34
2022-09-29T06:09:45.568Z,99458.66
2022-09-29T06:12:13.073Z,99452.91
2022-09-29T06:14:40.637Z,99458.81
2022-09-29T06:17:09.533Z,99458.81
2022-09-29T06:19:38.289Z,99457.97
2022-09-29T06:22:07.277Z,99463.53
2022-09-29T06:24:34.774Z,99469.13
2022-09-29T06:27:02.303Z,99468.94
2022-09-29T06:29:29.828Z,99471.97
2022-09-29T06:31:57.481Z,99469.47
2022-09-29T06:34:26.452Z,99472.66
2022-09-29T06:37:11.421Z,99460.34
2022-09-29T06:39:38.956Z,99466.72
2022-09-29T06:42:06.547Z,99459.81
2022-09-29T06:44:34.088Z,99450.69
2022-09-29T06:47:02.097Z,99452.59
2022-09-29T06:49:31.222Z,99440.75
2022-09-29T06:51:59.019Z,99449.47
2022-09-29T06:54:26.896Z,99461.19
2022-09-29T06:56:55.177Z,99456.75
2022-09-29T06:59:22.815Z,99470.03
2022-09-29T07:01:51.408Z,99472.78
2022-09-29T07:04:20.368Z,99473.53
2022-09-29T07:06:49.934Z,99470.63
2022-09-29T07:09:17.725Z,99471.00
2022-09-29T07:11:47.002Z,99474.78
2022-09-29T07:14:14.814Z,99479.81
2022-09-29T07:16:42.614Z,99483.00
2022-09-29T07:19:10.528Z,99478.59
2022-09-29T07:21:38.033Z,99488.78
2022-09-29T07:24:07.263Z,99481.66
2022-09-29T07:26:34.808Z,99495.72
2022-09-29T07:29:02.346Z,99499.94
2022-09-29T07:31:35.127Z,99504.13
2022-09-29T07:34:09.912Z,99500.84
2022-09-29T07:36:38.987Z,99478.88
2022-09-29T07:39:07.899Z,99495.44
2022-09-29T07:41:35.433Z,99500.94
2022-09-29T07:44:03.543Z,99504.06
2022-09-29T07:46:32.632Z,99514.44
2022-09-29T07:49:00.160Z,99517.63
2022-09-29T07:51:27.659Z,99514.16
2022-09-29T07:53:55.208Z,99523.88
2022-09-29T07:56:24.553Z,99531.34
2022-09-29T07:58:52.392Z,99524.22
2022-09-29T08:01:20.801Z,99531.72
2022-09-29T08:03:51.860Z,99534.59
2022-09-29T08:06:19.793Z,99531.09
2022-09-29T08:09:00.076Z,99533.63
2022-09-29T08:11:33.142Z,99543.13
2022-09-29T08:14:01.272Z,99543.97
2022-09-29T08:16:29.089Z,99553.09
2022-09-29T08:18:56.653Z,99552.41
2022-09-29T08:21:24.495Z,99558.38
2022-09-29T08:23:52.049Z,99562.50
2022-09-29T08:26:35.009Z,99562.94
2022-09-29T08:29:13.230Z,99563.97
2022-09-29T08:31:44.213Z,99553.81
2022-09-29T08:34:13.353Z,99560.03
2022-09-29T08:36:41.313Z,99567.91
2022-09-29T08:39:11.479Z,99571.75
2022-09-29T08:41:50.254Z,99575.69
2022-09-29T08:44:36.278Z,99583.28
2022-09-29T08:47:11.007Z,99576.97
2022-09-29T08:49:40.688Z,99584.84
2022-09-29T08:52:16.750Z,99586.31
2022-09-29T08:54:48.725Z,99589.94
2022-09-29T08:57:19.303Z,99583.00
2022-09-29T08:59:53.689Z,99581.69
2022-09-29T09:02:54.517Z,99584.00
2022-09-29T09:05:32.125Z,99594.56
2022-09-29T09:08:04.622Z,99587.81
2022-09-29T09:10:40.846Z,99589.00
2022-09-29T09:13:17.630Z,99592.63
2022-09-29T09:16:16.494Z,99585.84
2022-09-29T09:19:05.543Z,99590.63
2022-09-29T09:21:41.158Z,99599.03
2022-09-29T09:24:19.193Z,99600.34
2022-09-29T09:26:49.183Z,99596.72
2022-09-29T09:29:24.399Z,99603.63
2022-09-29T09:31:57.447Z,99607.16
2022-09-29T09:34:39.417Z,99606.34
2022-09-29T09:37:14.803Z,99607.53
2022-09-29T09:39:48.234Z,99606.94
2022-09-29T09:42:19.734Z,99604.16
2022-09-29T09:44:49.695Z,99605.78
2022-09-29T09:47:26.139Z,99616.63
2022-09-29T09:49:56.101Z,99617.69
2022-09-29T09:52:27.179Z,99616.84
2022-09-29T09:54:57.495Z,99619.16
2022-09-29T09:57:47.995Z,99618.72
2022-09-29T10:00:17.240Z,99617.81
2022-09-29T10:02:47.797Z,99626.31
2022-09-29T10:05:17.374Z,99628.41
2022-09-29T10:07:45.720Z,99621.06
2022-09-29T10:10:18.178Z,99625.72
2022-09-29T10:12:46.218Z,99616.94
2022-09-29T10:15:19.878Z,99621.28
2022-09-29T10:17:52.012Z,99628.44
2022-09-29T10:20:33.349Z,99623.53
2022-09-29T10:23:20.193Z,99618.97
2022-09-29T10:25:53.614Z,99629.75
2022-09-29T10:28:21.200Z,99630.41
2022-09-29T10:30:48.771Z,99624.41
2022-09-29T10:33:19.655Z,99619.63
2022-09-29T10:35:48.679Z,99624.41
2022-09-29T10:38:25.169Z,99614.97
2022-09-29T10:40:58.155Z,99618.06
2022-09-29T10:43:27.811Z,99615.22
2022-09-29T10:45:58.507Z,99615.81
2022-09-29T10:48:28.178Z,99619.66
2022-09-29T10:50:57.858Z,99615.44
2022-09-29T10:53:34.270Z,99622.22
2022-09-29T10:56:10.983Z,99625.50
2022-09-29T10:58:57.697Z,99613.72
2022-09-29T11:01:31.371Z,99620.56
2022-09-29T11:04:03.356Z,99615.28
2022-09-29T11:06:32.791Z,99618.66
2022-09-29T11:09:02.694Z,99627.78
2022-09-29T11:11:31.713Z,99624.41
2022-09-29T11:14:00.050Z,99622.59
2022-09-29T11:16:30.457Z,99612.59
2022-09-29T11:19:02.959Z,99617.06
2022-09-29T11:21:56.142Z,99623.41
2022-09-29T11:24:33.647Z,99627.41
2022-09-29T11:27:07.843Z,99632.31
2022-09-29T11:29:43.259Z,99627.78
2022-09-29T11:32:25.010Z,99626.31
2022-09-29T11:35:08.015Z,99636.63
2022-09-29T11:37:59.469Z,99640.72
2022-09-29T11:40:32.531Z,99636.38
2022-09-29T11:43:09.890Z,99643.72
2022-09-29T11:45:43.330Z,99633.50
2022-09-29T11:48:34.405Z,99644.91
2022-09-29T11:51:08.009Z,99640.94
2022-09-29T11:53:45.732Z,99643.81
2022-09-29T11:56:26.024Z,99651.53
2022-09-29T11:59:06.917Z,99651.00
2022-09-29T12:01:46.448Z,99653.06
2022-09-29T12:04:21.476Z,99643.34
2022-09-29T12:06:56.027Z,99638.78
2022-09-29T12:09:44.971Z,99643.44
2022-09-29T12:12:24.956Z,99641.03
2022-09-29T12:15:07.584Z,99637.81
2022-09-29T12:17:37.874Z,99647.66
2022-09-29T12:20:09.991Z,99643.94
2022-09-29T12:22:39.965Z,99647.06
2022-09-29T12:25:14.900Z,99649.22
2022-09-29T12:27:44.531Z,99644.72
2022-09-29T12:30:16.985Z,99636.41
2022-09-29T12:32:48.304Z,99643.09
2022-09-29T12:35:19.659Z,99653.22
2022-09-29T12:37:53.347Z,99642.31
2022-09-29T12:40:23.607Z,99649.59
2022-09-29T12:44:19.252Z,99652.06
2022-09-29T12:46:49.832Z,99643.66
2022-09-29T12:49:21.020Z,99649.22
2022-09-29T12:54:22.027Z,99658.31
2022-09-29T12:56:53.056Z,99648.38
2022-09-29T12:59:30.682Z,99643.72
2022-09-29T13:01:58.784Z,99648.88
2022-09-29T13:04:37.254Z,99640.53
2022-09-29T13:07:20.567Z,99637.22
2022-09-29T13:10:27.267Z,99646.19
2022-09-29T13:13:24.557Z,99643.97
2022-09-29T13:16:05.743Z,99644.84
2022-09-29T13:19:00.026Z,99653.50
2022-09-29T13:21:39.775Z,99636.50
2022-09-29T13:24:18.922Z,99648.34
2022-09-29T13:27:08.199Z,99643.13
2022-09-29T13:29:44.710Z,99647.72
2022-09-29T13:32:14.027Z,99654.72
2022-09-29T13:34:48.390Z,99647.88
2022-09-29T13:37:18.267Z,99658.81
2022-09-29T13:39:57.905Z,99655.91
2022-09-29T13:42:43.367Z,99651.31
2022-09-29T13:45:42.832Z,99658.28
2022-09-29T13:48:37.769Z,99662.69
2022-09-29T13:51:25.351Z,99658.56
2022-09-29T13:54:24.070Z,99660.94
2022-09-29T13:56:53.796Z,99663.75
2022-09-29T13:59:24.104Z,99664.19
2022-09-29T14:01:52.628Z,99661.50
2022-09-29T14:04:46.817Z,99656.75
2022-09-29T14:07:15.562Z,99652.91
2022-09-29T14:09:45.630Z,99663.28
2022-09-29T14:12:19.124Z,99665.50
2022-09-29T14:14:51.681Z,99656.19
2022-09-29T14:17:23.311Z,99666.88
2022-09-29T14:19:56.471Z,99659.78
2022-09-29T14:22:53.502Z,99667.84
2022-09-29T14:25:50.445Z,99672.50
2022-09-29T14:28:21.886Z,99664.91
2022-09-29T14:30:51.409Z,99660.84
2022-09-29T14:33:21.151Z,99662.38
2022-09-29T14:35:56.220Z,99667.19
2022-09-29T14:38:26.417Z,99674.50
2022-09-29T14:40:58.606Z,99679.00
2022-09-29T14:43:27.819Z,99677.50
2022-09-29T14:46:24.530Z,99692.25
2022-09-29T14:49:20.297Z,99678.41
2022-09-29T14:52:00.735Z,99685.84
2022-09-29T14:54:41.672Z,99687.75
2022-09-29T14:57:17.654Z,99691.94
2022-09-29T14:59:54.692Z,99689.13
2022-09-29T15:02:23.921Z,99687.97
2022-09-29T15:04:51.474Z,99693.84
2022-09-29T15:07:22.099Z,99690.81
2022-09-29T15:09:52.457Z,99697.31
2022-09-29T15:12:22.903Z,99695.59
2022-09-29T15:14:51.131Z,99694.97
2022-09-29T15:17:30.458Z,99694.53
2022-09-29T15:20:02.145Z,99690.22
2022-09-29T15:22:52.416Z,99687.59
2022-09-29T15:25:23.960Z,99689.38
2022-09-29T15:27:53.279Z,99683.84
2022-09-29T15:30:22.603Z,99686.94
2022-09-29T15:32:51.611Z,99685.06
2022-09-29T15:35:22.635Z,99695.06
2022-09-29T15:38:17.527Z,99691.97
2022-09-29T15:40:46.331Z,99694.47
2022-09-29T15:43:25.036Z,99688.16
2022-09-29T15:45:59.239Z,99689.13
2022-09-29T15:48:26.948Z,99700.97
2022-09-29T15:50:55.689Z,99690.84
2022-09-29T15:53:25.619Z,99690.84
2022-09-29T15:55:53.289Z,99695.16
2022-09-29T15:58:38.689Z,99701.22
2022-09-29T16:01:07.463Z,99700.28
2022-09-29T16:03:40.843Z,99703.88
2022-09-29T16:06:15.695Z,99706.53
2022-09-29T16:08:47.644Z,99710.38
2022-09-29T16:11:21.750Z,99720.97
2022-09-29T16:13:53.299Z,99716.16
2022-09-29T16:19:10.666Z,99727.34
2022-09-29T16:21:38.974Z,99725.06
2022-09-29T16:24:18.489Z,99729.59
2022-09-29T16:26:48.039Z,99737.66
2022-09-29T16:29:30.037Z,99737.78
2022-09-29T16:31:58.032Z,99746.91
2022-09-29T16:34:32.282Z,99753.13
2022-09-29T16:37:02.168Z,99754.91
2022-09-29T16:39:32.463Z,99762.59
2022-09-29T16:42:03.118Z,99759.03
2022-09-29T16:44:32.164Z,99763.06
2022-09-29T16:47:02.300Z,99762.28
2022-09-29T16:49:32.938Z,99764.16
2022-09-29T16:52:02.982Z,99766.91
2022-09-29T16:54:33.336Z,99768.50
2022-09-29T16:57:22.895Z,99782.75
2022-09-29T16:59:52.531Z,99790.84
2022-09-29T17:02:20.390Z,99785.19
2022-09-29T17:04:49.328Z,99790.47
2022-09-29T17:07:19.019Z,99794.03
2022-09-29T17:09:47.972Z,99797.38
2022-09-29T17:12:16.615Z,99800.03
2022-09-29T17:14:45.141Z,99802.72
2022-09-29T17:17:18.607Z,99802.47
2022-09-29T17:19:46.254Z,99804.00
2022-09-29T17:22:23.546Z,99807.44
2022-09-29T17:24:51.171Z,99809.81
2022-09-29T17:27:36.270Z,99817.72
2022-09-29T17:30:04.241Z,99814.06
2022-09-29T17:32:31.742Z,99819.81
2022-09-29T17:34:59.284Z,99821.97
2022-09-29T17:37:28.183Z,99826.91
2022-09-29T17:39:56.007Z,99836.00
2022-09-29T17:42:26.839Z,99834.53
2022-09-29T17:44:54.347Z,99839.94
2022-09-29T17:47:28.263Z,99843.06
2022-09-29T17:49:57.606Z,99842.84
2022-09-29T17:52:25.576Z,99850.16
2022-09-29T17:54:54.434Z,99855.75
2022-09-29T17:57:24.799Z,99861.91
2022-09-29T17:59:52.864Z,99866.34
2022-09-29T18:02:20.426Z,99858.28
2022-09-29T18:04:49.323Z,99862.22
2022-09-29T18:07:17.173Z,99858.78
2022-09-29T18:09:47.040Z,99861.06
2022-09-29T18:12:15.907Z,99865.56
2022-09-29T18:14:43.400Z,99863.47
2022-09-29T18:17:10.928Z,99863.31
2022-09-29T18:19:40.127Z,99862.38
2022-09-29T18:22:08.088Z,99870.63
2022-09-29T18:24:35.752Z,99869.13
2022-09-29T18:27:03.262Z,99872.16
2022-09-29T18:29:32.667Z,99871.19
2022-09-29T18:32:00.522Z,99882.84
2022-09-29T18:34:30.958Z,99881.53
2022-09-29T18:36:58.643Z,99876.91
2022-09-29T18:39:26.242Z,99880.75
2022-09-29T18:41:53.755Z,99883.72
2022-09-29T18:44:24.434Z,99884.66
2022-09-29T18:46:53.337Z,99880.69
2022-09-29T18:49:20.965Z,99880.69
2022-09-29T18:51:52.578Z,99884.66
2022-09-29T18:54:20.201Z,99884.81
2022-09-29T18:56:50.379Z,99885.66
2022-09-29T18:59:20.043Z,99886.50
2022-09-29T19:01:47.831Z,99887.94
2022-09-29T19:04:16.754Z,99891.03
2022-09-29T19:06:44.255Z,99890.47
2022-09-29T19:09:11.812Z,99893.50
2022-09-29T19:11:39.377Z,99893.84
2022-09-29T19:14:08.434Z,99896.88
2022-09-29T19:16:36.193Z,99905.13
2022-09-29T19:19:04.398Z,99906.47
2022-09-29T19:21:33.707Z,99911.94
2022-09-29T19:24:01.624Z,99922.25
2022-09-29T19:26:30.340Z,99921.88
2022-09-29T19:28:57.934Z,99926.47
2022-09-29T19:31:25.584Z,99923.34
2022-09-29T19:33:53.102Z,99926.78
2022-09-29T19:36:22.395Z,99930.59
2022-09-29T19:38:51.455Z,99939.63
2022-09-29T19:41:21.499Z,99942.25
2022-09-29T19:43:49.803Z,99942.91
2022-09-29T19:46:18.164Z,99937.94
2022-09-29T19:48:45.780Z,99946.03
2022-09-29T19:51:34.368Z,99947.16
2022-09-29T19:54:14.628Z,99948.34
2022-09-29T19:56:43.593Z,99947.38
2022-09-29T19:59:13.771Z,99953.94
2022-09-29T20:01:41.759Z,99957.47
2022-09-29T20:04:09.366Z,99963.31
2022-09-29T20:06:36.883Z,99966.38
2022-09-29T20:09:05.985Z,99958.81
2022-09-29T20:11:34.920Z,99966.63
2022-09-29T20:14:03.331Z,99972.53
2022-09-29T20:16:33.376Z,99967.47
2022-09-29T20:19:00.962Z,99975.47
2022-09-29T20:21:28.664Z,99977.47
2022-09-29T20:23:57.825Z,99976.34
2022-09-29T20:26:26.687Z,99971.41
2022-09-29T20:28:55.080Z,99978.72
2022-09-29T20:31:23.802Z,99982.84
2022-09-29T20:33:52.444Z,99981.75
2022-09-29T20:36:20.139Z,99991.78
2022-09-29T20:38:48.045Z,99989.06
2022-09-29T20:41:16.795Z,99988.97
2022-09-29T20:43:47.984Z,99999.50
2022-09-29T20:46:16.090Z,100002.56
2022-09-29T20:48:43.905Z,100008.09
2022-09-29T20:51:15.045Z,100009.44
2022-09-29T20:53:44.214Z,100010.75
2022-09-29T20:56:16.152Z,100014.53
2022-09-29T20:58:46.255Z,100014.53
2022-09-29T21:01:16.745Z,100016.38
2022-09-29T21:03:45.031Z,100013.84
2022-09-29T21:06:13.240Z,100020.72
2022-09-29T21:08:41.623Z,100020.00
2022-09-29T21:11:09.398Z,100025.25
2022-09-29T21:13:37.247Z,100020.75
2022-09-29T21:16:07.472Z,100029.75
2022-09-29T21:18:35.378Z,100023.25
2022-09-29T21:21:04.176Z,100024.47
2022-09-29T21:23:32.739Z,100029.56
2022-09-29T21:26:02.712Z,100027.00
2022-09-29T21:28:30.263Z,100031.44
2022-09-29T21:31:02.192Z,100031.63
2022-09-29T21:33:31.467Z,100035.78
2022-09-29T21:35:59.500Z,100037.28
2022-09-29T21:38:29.999Z,100042.94
2022-09-29T21:41:03.693Z,100050.63
2022-09-29T21:43:32.442Z,100054.84
2022-09-29T21:46:03.855Z,100045.94
2022-09-29T21:48:34.910Z,100047.34
2022-09-29T21:51:07.308Z,100054.66
2022-09-29T21:53:36.370Z,100060.84
2022-09-29T21:56:06.046Z,100068.47
2022-09-29T21:58:33.776Z,100063.97
2022-09-29T22:01:01.763Z,100069.25
2022-09-29T22:03:32.886Z,100066.81
2022-09-29T22:06:00.843Z,100060.88
2022-09-29T22:08:28.605Z,100065.31
2022-09-29T22:10:56.595Z,100057.59
2022-09-29T22:13:25.042Z,100055.91
2022-09-29T22:15:53.419Z,100050.63
2022-09-29T22:18:21.183Z,100053.25
2022-09-29T22:20:50.042Z,100056.06
2022-09-29T22:23:17.549Z,100054.94
2022-09-29T22:25:46.693Z,100056.44
2022-09-29T22:28:14.218Z,100057.09
2022-09-29T22:30:41.710Z,100061.69
2022-09-29T22:33:09.720Z,100065.47
2022-09-29T22:35:38.314Z,100057.84
2022-09-29T22:38:08.382Z,100062.28
2022-09-29T22:40:37.287Z,100062.59
2022-09-29T22:43:05.814Z,100059.34
2022-09-29T22:45:34.031Z,100065.88
2022-09-29T22:48:02.335Z,100067.19
2022-09-29T22:50:32.205Z,100065.31
2022-09-29T22:53:00.684Z,100071.22
2022-09-29T22:55:31.778Z,100065.69
2022-09-29T22:57:59.305Z,100066.81
2022-09-29T23:00:26.925Z,100062.28
2022-09-29T23:02:54.705Z,100062.94
2022-09-29T23:05:22.205Z,100062.84
2022-09-29T23:07:49.747Z,100065.19
2022-09-29T23:10:17.763Z,100075.97
2022-09-29T23:12:46.637Z,100070.84
2022-09-29T23:15:14.699Z,100073.09
2022-09-29T23:17:42.284Z,100071.97
2022-09-29T23:20:09.943Z,100074.22
2022-09-29T23:22:37.467Z,100070.34
2022-09-29T23:25:06.052Z,100073.69
2022-09-29T23:27:34.059Z,100070.56
2022-09-29T23:30:02.963Z,100080.84
2022-09-29T23:32:30.474Z,100086.47
2022-09-29T23:34:57.983Z,100085.25
2022-09-29T23:37:46.128Z,100087.47
2022-09-29T23:40:13.644Z,100091.97
2022-09-29T23:42:41.224Z,100089.09
2022-09-29T23:45:10.285Z,100093.00
2022-09-29T23:47:37.796Z,100096.72
2022-09-29T23:50:05.732Z,100096.56
2022-09-29T23:52:33.936Z,100090.13
2022-09-29T23:55:01.467Z,100092.66
2022-09-29T23:57:29.003Z,100096.38
2022-09-29T23:59:56.652Z,100098.41
